sensor_id;sensor_type;location;lat;lon;timestamp;P1;durP1;ratioP1;P2;durP2;ratioP2
3299;SDS011;1662;49.310;8.134;2022-10-16T00:01:09;1.37;;;1.37;;
3299;SDS011;1662;49.310;8.134;2022-10-16T00:03:36;1.33;;;1.20;;
3299;SDS011;1662;49.310;8.134;2022-10-16T00:06:03;1.20;;;1.10;;
3299;SDS011;1662;49.310;8.134;2022-10-16T00:08:32;1.07;;;1.00;;
3299;SDS011;1662;49.310;8.134;2022-10-16T00:10:59;1.43;;;1.43;;
3299;SDS011;1662;49.310;8.134;2022-10-16T00:13:29;2.80;;;2.60;;
3299;SDS011;1662;49.310;8.134;2022-10-16T00:15:56;2.70;;;2.23;;
3299;SDS011;1662;49.310;8.134;2022-10-16T00:18:26;3.23;;;2.93;;
3299;SDS011;1662;49.310;8.134;2022-10-16T00:20:52;3.03;;;2.53;;
3299;SDS011;1662;49.310;8.134;2022-10-16T00:23:17;3.20;;;2.43;;
3299;SDS011;1662;49.310;8.134;2022-10-16T00:25:43;1.90;;;1.80;;
3299;SDS011;1662;49.310;8.134;2022-10-16T00:28:12;3.33;;;1.90;;
3299;SDS011;1662;49.310;8.134;2022-10-16T00:30:38;3.50;;;3.20;;
3299;SDS011;1662;49.310;8.134;2022-10-16T00:33:03;3.17;;;3.00;;
3299;SDS011;1662;49.310;8.134;2022-10-16T00:35:30;2.40;;;2.30;;
3299;SDS011;1662;49.310;8.134;2022-10-16T00:37:56;2.03;;;1.93;;
3299;SDS011;1662;49.310;8.134;2022-10-16T00:40:21;4.40;;;4.10;;
3299;SDS011;1662;49.310;8.134;2022-10-16T00:42:47;3.77;;;3.50;;
3299;SDS011;1662;49.310;8.134;2022-10-16T00:45:13;4.30;;;4.00;;
3299;SDS011;1662;49.310;8.134;2022-10-16T00:47:44;4.90;;;4.50;;
3299;SDS011;1662;49.310;8.134;2022-10-16T00:50:27;4.83;;;4.43;;
3299;SDS011;1662;49.310;8.134;2022-10-16T00:52:55;5.03;;;4.00;;
3299;SDS011;1662;49.310;8.134;2022-10-16T00:55:23;2.77;;;2.67;;
3299;SDS011;1662;49.310;8.134;2022-10-16T00:57:50;3.23;;;3.00;;
3299;SDS011;1662;49.310;8.134;2022-10-16T01:00:21;1.90;;;1.80;;
3299;SDS011;1662;49.310;8.134;2022-10-16T01:02:52;3.47;;;2.30;;
3299;SDS011;1662;49.310;8.134;2022-10-16T01:05:23;1.90;;;1.90;;
3299;SDS011;1662;49.310;8.134;2022-10-16T01:13:18;2.53;;;1.70;;
3299;SDS011;1662;49.310;8.134;2022-10-16T01:18:46;1.63;;;1.63;;
3299;SDS011;1662;49.310;8.134;2022-10-16T01:21:28;2.47;;;2.27;;
3299;SDS011;1662;49.310;8.134;2022-10-16T01:32:35;2.00;;;1.90;;
3299;SDS011;1662;49.310;8.134;2022-10-16T01:35:18;2.27;;;2.17;;
3299;SDS011;1662;49.310;8.134;2022-10-16T01:38:11;2.00;;;1.90;;
3299;SDS011;1662;49.310;8.134;2022-10-16T01:40:41;2.60;;;2.40;;
3299;SDS011;1662;49.310;8.134;2022-10-16T01:43:12;3.30;;;2.10;;
3299;SDS011;1662;49.310;8.134;2022-10-16T01:45:42;2.00;;;1.90;;
3299;SDS011;1662;49.310;8.134;2022-10-16T01:48:10;2.50;;;2.30;;
3299;SDS011;1662;49.310;8.134;2022-10-16T01:50:39;2.40;;;2.30;;
3299;SDS011;1662;49.310;8.134;2022-10-16T01:53:08;3.27;;;2.23;;
3299;SDS011;1662;49.310;8.134;2022-10-16T01:55:38;1.93;;;1.83;;
3299;SDS011;1662;49.310;8.134;2022-10-16T01:58:10;4.93;;;2.30;;
3299;SDS011;1662;49.310;8.134;2022-10-16T02:00:37;3.73;;;2.10;;
3299;SDS011;1662;49.310;8.134;2022-10-16T02:03:07;6.30;;;2.20;;
3299;SDS011;1662;49.310;8.134;2022-10-16T02:08:02;2.20;;;2.10;;
3299;SDS011;1662;49.310;8.134;2022-10-16T02:10:27;2.30;;;2.20;;
3299;SDS011;1662;49.310;8.134;2022-10-16T02:13:09;2.63;;;2.43;;
3299;SDS011;1662;49.310;8.134;2022-10-16T02:15:56;3.10;;;2.63;;
3299;SDS011;1662;49.310;8.134;2022-10-16T02:18:22;2.00;;;1.90;;
3299;SDS011;1662;49.310;8.134;2022-10-16T02:20:53;2.00;;;1.90;;
3299;SDS011;1662;49.310;8.134;2022-10-16T02:23:34;2.93;;;2.83;;
3299;SDS011;1662;49.310;8.134;2022-10-16T02:26:01;3.10;;;2.80;;
3299;SDS011;1662;49.310;8.134;2022-10-16T02:28:38;3.13;;;2.53;;
3299;SDS011;1662;49.310;8.134;2022-10-16T02:31:07;2.70;;;2.50;;
3299;SDS011;1662;49.310;8.134;2022-10-16T02:33:36;3.00;;;2.80;;
3299;SDS011;1662;49.310;8.134;2022-10-16T02:36:07;2.53;;;2.43;;
3299;SDS011;1662;49.310;8.134;2022-10-16T02:38:34;3.23;;;3.00;;
3299;SDS011;1662;49.310;8.134;2022-10-16T02:41:01;3.07;;;2.73;;
3299;SDS011;1662;49.310;8.134;2022-10-16T02:43:28;2.70;;;2.60;;
3299;SDS011;1662;49.310;8.134;2022-10-16T02:45:54;2.40;;;2.30;;
3299;SDS011;1662;49.310;8.134;2022-10-16T02:48:20;2.67;;;2.57;;
3299;SDS011;1662;49.310;8.134;2022-10-16T02:50:46;2.93;;;2.73;;
3299;SDS011;1662;49.310;8.134;2022-10-16T02:53:11;2.50;;;2.40;;
3299;SDS011;1662;49.310;8.134;2022-10-16T02:55:37;2.70;;;2.60;;
3299;SDS011;1662;49.310;8.134;2022-10-16T02:58:02;3.90;;;2.40;;
3299;SDS011;1662;49.310;8.134;2022-10-16T03:00:28;5.50;;;2.90;;
3299;SDS011;1662;49.310;8.134;2022-10-16T03:02:54;9.63;;;3.50;;
3299;SDS011;1662;49.310;8.134;2022-10-16T03:05:22;3.30;;;2.90;;
3299;SDS011;1662;49.310;8.134;2022-10-16T03:07:47;3.67;;;2.40;;
3299;SDS011;1662;49.310;8.134;2022-10-16T03:10:13;3.60;;;3.30;;
3299;SDS011;1662;49.310;8.134;2022-10-16T03:12:39;3.47;;;3.27;;
3299;SDS011;1662;49.310;8.134;2022-10-16T03:15:04;2.90;;;2.70;;
3299;SDS011;1662;49.310;8.134;2022-10-16T03:17:34;5.33;;;3.13;;
3299;SDS011;1662;49.310;8.134;2022-10-16T03:19:59;2.27;;;2.17;;
3299;SDS011;1662;49.310;8.134;2022-10-16T03:22:25;2.60;;;2.50;;
3299;SDS011;1662;49.310;8.134;2022-10-16T03:24:50;4.77;;;2.90;;
3299;SDS011;1662;49.310;8.134;2022-10-16T03:27:16;3.53;;;3.10;;
3299;SDS011;1662;49.310;8.134;2022-10-16T03:29:42;2.73;;;2.63;;
3299;SDS011;1662;49.310;8.134;2022-10-16T03:32:10;3.90;;;2.80;;
3299;SDS011;1662;49.310;8.134;2022-10-16T03:34:35;3.00;;;2.80;;
3299;SDS011;1662;49.310;8.134;2022-10-16T03:37:01;4.10;;;2.93;;
3299;SDS011;1662;49.310;8.134;2022-10-16T03:39:27;3.30;;;3.00;;
3299;SDS011;1662;49.310;8.134;2022-10-16T03:41:52;2.67;;;2.57;;
3299;SDS011;1662;49.310;8.134;2022-10-16T03:44:18;2.43;;;2.33;;
3299;SDS011;1662;49.310;8.134;2022-10-16T03:46:44;6.27;;;2.77;;
3299;SDS011;1662;49.310;8.134;2022-10-16T03:49:09;2.97;;;2.77;;
3299;SDS011;1662;49.310;8.134;2022-10-16T03:51:35;2.80;;;2.60;;
3299;SDS011;1662;49.310;8.134;2022-10-16T03:54:01;3.00;;;2.80;;
3299;SDS011;1662;49.310;8.134;2022-10-16T03:56:26;2.67;;;2.47;;
3299;SDS011;1662;49.310;8.134;2022-10-16T03:58:54;3.20;;;3.03;;
3299;SDS011;1662;49.310;8.134;2022-10-16T04:01:20;3.40;;;3.20;;
3299;SDS011;1662;49.310;8.134;2022-10-16T04:03:45;3.53;;;3.33;;
3299;SDS011;1662;49.310;8.134;2022-10-16T04:06:11;3.40;;;3.30;;
3299;SDS011;1662;49.310;8.134;2022-10-16T04:08:36;2.90;;;2.80;;
3299;SDS011;1662;49.310;8.134;2022-10-16T04:11:04;2.70;;;2.60;;
3299;SDS011;1662;49.310;8.134;2022-10-16T04:13:29;2.70;;;2.60;;
3299;SDS011;1662;49.310;8.134;2022-10-16T04:15:55;5.13;;;4.30;;
3299;SDS011;1662;49.310;8.134;2022-10-16T04:18:21;5.97;;;3.67;;
3299;SDS011;1662;49.310;8.134;2022-10-16T04:20:46;3.67;;;3.10;;
3299;SDS011;1662;49.310;8.134;2022-10-16T04:23:14;3.80;;;3.50;;
3299;SDS011;1662;49.310;8.134;2022-10-16T04:25:40;2.83;;;2.60;;
3299;SDS011;1662;49.310;8.134;2022-10-16T04:28:06;3.27;;;3.07;;
3299;SDS011;1662;49.310;8.134;2022-10-16T04:30:31;3.60;;;3.40;;
3299;SDS011;1662;49.310;8.134;2022-10-16T04:32:58;4.00;;;3.70;;
3299;SDS011;1662;49.310;8.134;2022-10-16T04:35:26;4.47;;;4.17;;
3299;SDS011;1662;49.310;8.134;2022-10-16T04:37:52;6.43;;;3.40;;
3299;SDS011;1662;49.310;8.134;2022-10-16T04:40:18;3.50;;;3.30;;
3299;SDS011;1662;49.310;8.134;2022-10-16T04:42:43;3.70;;;3.07;;
3299;SDS011;1662;49.310;8.134;2022-10-16T04:45:09;3.33;;;3.13;;
3299;SDS011;1662;49.310;8.134;2022-10-16T04:47:35;3.10;;;3.00;;
3299;SDS011;1662;49.310;8.134;2022-10-16T04:50:00;3.27;;;3.13;;
3299;SDS011;1662;49.310;8.134;2022-10-16T04:52:27;3.07;;;2.73;;
3299;SDS011;1662;49.310;8.134;2022-10-16T04:54:53;3.03;;;2.93;;
3299;SDS011;1662;49.310;8.134;2022-10-16T04:57:20;3.40;;;3.13;;
3299;SDS011;1662;49.310;8.134;2022-10-16T04:59:45;2.87;;;2.77;;
3299;SDS011;1662;49.310;8.134;2022-10-16T05:02:13;3.60;;;3.33;;
3299;SDS011;1662;49.310;8.134;2022-10-16T05:04:39;3.80;;;3.00;;
3299;SDS011;1662;49.310;8.134;2022-10-16T05:07:04;3.37;;;3.07;;
3299;SDS011;1662;49.310;8.134;2022-10-16T05:09:30;3.57;;;3.30;;
3299;SDS011;1662;49.310;8.134;2022-10-16T05:11:55;3.53;;;3.33;;
3299;SDS011;1662;49.310;8.134;2022-10-16T05:14:21;3.13;;;3.03;;
3299;SDS011;1662;49.310;8.134;2022-10-16T05:16:47;3.63;;;3.40;;
3299;SDS011;1662;49.310;8.134;2022-10-16T05:19:13;4.67;;;4.27;;
3299;SDS011;1662;49.310;8.134;2022-10-16T05:21:39;3.30;;;3.10;;
3299;SDS011;1662;49.310;8.134;2022-10-16T05:24:04;3.37;;;3.13;;
3299;SDS011;1662;49.310;8.134;2022-10-16T05:26:30;5.83;;;3.70;;
3299;SDS011;1662;49.310;8.134;2022-10-16T05:28:55;8.27;;;3.77;;
3299;SDS011;1662;49.310;8.134;2022-10-16T05:31:21;3.97;;;3.67;;
3299;SDS011;1662;49.310;8.134;2022-10-16T05:33:46;4.20;;;3.93;;
3299;SDS011;1662;49.310;8.134;2022-10-16T05:36:12;5.40;;;3.60;;
3299;SDS011;1662;49.310;8.134;2022-10-16T05:38:42;4.77;;;4.40;;
3299;SDS011;1662;49.310;8.134;2022-10-16T05:41:08;5.23;;;4.90;;
3299;SDS011;1662;49.310;8.134;2022-10-16T05:43:36;4.30;;;4.10;;
3299;SDS011;1662;49.310;8.134;2022-10-16T05:46:04;3.77;;;3.57;;
3299;SDS011;1662;49.310;8.134;2022-10-16T05:48:31;4.20;;;3.83;;
3299;SDS011;1662;49.310;8.134;2022-10-16T05:51:00;4.20;;;3.80;;
3299;SDS011;1662;49.310;8.134;2022-10-16T05:53:28;4.13;;;3.87;;
3299;SDS011;1662;49.310;8.134;2022-10-16T05:55:54;4.70;;;4.30;;
3299;SDS011;1662;49.310;8.134;2022-10-16T05:58:24;4.50;;;4.30;;
3299;SDS011;1662;49.310;8.134;2022-10-16T06:01:03;4.23;;;3.93;;
3299;SDS011;1662;49.310;8.134;2022-10-16T06:03:30;4.33;;;4.03;;
3299;SDS011;1662;49.310;8.134;2022-10-16T06:05:56;3.93;;;3.70;;
3299;SDS011;1662;49.310;8.134;2022-10-16T06:08:22;4.63;;;4.23;;
3299;SDS011;1662;49.310;8.134;2022-10-16T06:10:48;5.00;;;4.33;;
3299;SDS011;1662;49.310;8.134;2022-10-16T06:13:24;4.13;;;3.73;;
3299;SDS011;1662;49.310;8.134;2022-10-16T06:15:50;4.27;;;3.87;;
3299;SDS011;1662;49.310;8.134;2022-10-16T06:18:15;4.17;;;3.77;;
3299;SDS011;1662;49.310;8.134;2022-10-16T06:20:41;3.80;;;3.60;;
3299;SDS011;1662;49.310;8.134;2022-10-16T06:23:06;6.43;;;3.53;;
3299;SDS011;1662;49.310;8.134;2022-10-16T06:25:32;3.80;;;3.60;;
3299;SDS011;1662;49.310;8.134;2022-10-16T06:27:58;4.37;;;4.03;;
3299;SDS011;1662;49.310;8.134;2022-10-16T06:30:24;4.07;;;3.60;;
3299;SDS011;1662;49.310;8.134;2022-10-16T06:32:49;5.63;;;3.30;;
3299;SDS011;1662;49.310;8.134;2022-10-16T06:35:17;3.30;;;3.10;;
3299;SDS011;1662;49.310;8.134;2022-10-16T06:37:43;3.77;;;3.57;;
3299;SDS011;1662;49.310;8.134;2022-10-16T06:40:09;4.20;;;3.90;;
3299;SDS011;1662;49.310;8.134;2022-10-16T06:42:34;3.70;;;3.50;;
3299;SDS011;1662;49.310;8.134;2022-10-16T06:45:00;4.73;;;4.33;;
3299;SDS011;1662;49.310;8.134;2022-10-16T06:47:26;3.77;;;3.57;;
3299;SDS011;1662;49.310;8.134;2022-10-16T06:49:55;3.67;;;3.57;;
3299;SDS011;1662;49.310;8.134;2022-10-16T06:52:20;3.17;;;2.97;;
3299;SDS011;1662;49.310;8.134;2022-10-16T06:54:46;3.80;;;3.67;;
3299;SDS011;1662;49.310;8.134;2022-10-16T06:57:11;3.87;;;3.57;;
3299;SDS011;1662;49.310;8.134;2022-10-16T06:59:37;4.03;;;3.70;;
3299;SDS011;1662;49.310;8.134;2022-10-16T07:02:03;3.77;;;3.47;;
3299;SDS011;1662;49.310;8.134;2022-10-16T07:04:28;3.93;;;3.57;;
3299;SDS011;1662;49.310;8.134;2022-10-16T07:06:54;4.13;;;3.93;;
3299;SDS011;1662;49.310;8.134;2022-10-16T07:09:19;4.77;;;4.37;;
3299;SDS011;1662;49.310;8.134;2022-10-16T07:11:45;4.63;;;4.33;;
3299;SDS011;1662;49.310;8.134;2022-10-16T07:14:17;5.67;;;5.27;;
3299;SDS011;1662;49.310;8.134;2022-10-16T07:16:44;4.40;;;4.00;;
3299;SDS011;1662;49.310;8.134;2022-10-16T07:19:10;4.53;;;4.33;;
3299;SDS011;1662;49.310;8.134;2022-10-16T07:21:37;5.30;;;4.90;;
3299;SDS011;1662;49.310;8.134;2022-10-16T07:24:06;4.60;;;4.40;;
3299;SDS011;1662;49.310;8.134;2022-10-16T07:26:36;6.40;;;6.00;;
3299;SDS011;1662;49.310;8.134;2022-10-16T07:29:03;5.93;;;5.47;;
3299;SDS011;1662;49.310;8.134;2022-10-16T07:31:38;6.87;;;6.30;;
3299;SDS011;1662;49.310;8.134;2022-10-16T07:34:04;7.43;;;6.23;;
3299;SDS011;1662;49.310;8.134;2022-10-16T07:36:30;4.53;;;4.23;;
3299;SDS011;1662;49.310;8.134;2022-10-16T07:38:56;6.83;;;5.50;;
3299;SDS011;1662;49.310;8.134;2022-10-16T07:41:24;7.10;;;4.93;;
3299;SDS011;1662;49.310;8.134;2022-10-16T07:43:50;4.90;;;4.60;;
3299;SDS011;1662;49.310;8.134;2022-10-16T07:46:18;6.10;;;5.50;;
3299;SDS011;1662;49.310;8.134;2022-10-16T07:48:47;12.77;;;9.80;;
3299;SDS011;1662;49.310;8.134;2022-10-16T07:51:19;12.30;;;11.00;;
3299;SDS011;1662;49.310;8.134;2022-10-16T07:53:49;6.00;;;4.73;;
3299;SDS011;1662;49.310;8.134;2022-10-16T07:56:16;5.30;;;4.80;;
3299;SDS011;1662;49.310;8.134;2022-10-16T07:58:42;5.23;;;4.80;;
3299;SDS011;1662;49.310;8.134;2022-10-16T08:01:09;5.20;;;4.80;;
3299;SDS011;1662;49.310;8.134;2022-10-16T08:03:38;4.97;;;4.60;;
3299;SDS011;1662;49.310;8.134;2022-10-16T08:06:03;4.57;;;4.27;;
3299;SDS011;1662;49.310;8.134;2022-10-16T08:08:29;5.70;;;5.10;;
3299;SDS011;1662;49.310;8.134;2022-10-16T08:10:55;4.87;;;4.47;;
3299;SDS011;1662;49.310;8.134;2022-10-16T08:13:21;6.20;;;5.70;;
3299;SDS011;1662;49.310;8.134;2022-10-16T08:15:47;6.87;;;6.40;;
3299;SDS011;1662;49.310;8.134;2022-10-16T08:18:13;4.50;;;4.30;;
3299;SDS011;1662;49.310;8.134;2022-10-16T08:20:40;5.70;;;4.80;;
3299;SDS011;1662;49.310;8.134;2022-10-16T08:23:07;5.17;;;4.77;;
3299;SDS011;1662;49.310;8.134;2022-10-16T08:25:34;5.40;;;5.00;;
3299;SDS011;1662;49.310;8.134;2022-10-16T08:28:04;5.30;;;5.00;;
3299;SDS011;1662;49.310;8.134;2022-10-16T08:30:30;5.43;;;4.90;;
3299;SDS011;1662;49.310;8.134;2022-10-16T08:32:56;4.60;;;4.20;;
3299;SDS011;1662;49.310;8.134;2022-10-16T08:35:25;9.13;;;5.07;;
3299;SDS011;1662;49.310;8.134;2022-10-16T08:37:56;19.53;;;6.30;;
3299;SDS011;1662;49.310;8.134;2022-10-16T08:42:55;4.87;;;4.47;;
3299;SDS011;1662;49.310;8.134;2022-10-16T08:45:45;4.97;;;4.47;;
3299;SDS011;1662;49.310;8.134;2022-10-16T08:48:30;4.20;;;3.90;;
3299;SDS011;1662;49.310;8.134;2022-10-16T08:51:08;3.53;;;3.30;;
3299;SDS011;1662;49.310;8.134;2022-10-16T08:53:40;4.10;;;3.90;;
3299;SDS011;1662;49.310;8.134;2022-10-16T08:56:11;4.20;;;4.00;;
3299;SDS011;1662;49.310;8.134;2022-10-16T08:58:39;4.13;;;3.93;;
3299;SDS011;1662;49.310;8.134;2022-10-16T09:01:11;4.33;;;4.03;;
3299;SDS011;1662;49.310;8.134;2022-10-16T09:13:56;3.57;;;3.37;;
3299;SDS011;1662;49.310;8.134;2022-10-16T09:21:45;3.50;;;3.23;;
3299;SDS011;1662;49.310;8.134;2022-10-16T09:26:40;3.30;;;3.20;;
3299;SDS011;1662;49.310;8.134;2022-10-16T09:29:06;2.80;;;2.70;;
3299;SDS011;1662;49.310;8.134;2022-10-16T09:31:33;3.03;;;2.83;;
3299;SDS011;1662;49.310;8.134;2022-10-16T09:34:02;3.60;;;3.30;;
3299;SDS011;1662;49.310;8.134;2022-10-16T09:36:39;5.33;;;2.90;;
3299;SDS011;1662;49.310;8.134;2022-10-16T09:39:07;15.90;;;3.27;;
3299;SDS011;1662;49.310;8.134;2022-10-16T09:41:37;3.97;;;3.60;;
3299;SDS011;1662;49.310;8.134;2022-10-16T09:44:16;3.07;;;2.87;;
3299;SDS011;1662;49.310;8.134;2022-10-16T09:47:02;3.10;;;2.97;;
3299;SDS011;1662;49.310;8.134;2022-10-16T09:49:29;3.50;;;3.30;;
3299;SDS011;1662;49.310;8.134;2022-10-16T09:57:15;3.97;;;3.67;;
3299;SDS011;1662;49.310;8.134;2022-10-16T09:59:51;3.50;;;3.30;;
3299;SDS011;1662;49.310;8.134;2022-10-16T10:05:00;3.37;;;3.17;;
3299;SDS011;1662;49.310;8.134;2022-10-16T10:07:27;3.00;;;2.83;;
3299;SDS011;1662;49.310;8.134;2022-10-16T10:09:58;3.00;;;2.80;;
3299;SDS011;1662;49.310;8.134;2022-10-16T10:12:25;3.20;;;3.10;;
3299;SDS011;1662;49.310;8.134;2022-10-16T10:15:03;4.00;;;2.83;;
3299;SDS011;1662;49.310;8.134;2022-10-16T10:17:32;3.23;;;2.93;;
3299;SDS011;1662;49.310;8.134;2022-10-16T10:20:14;3.57;;;3.27;;
3299;SDS011;1662;49.310;8.134;2022-10-16T10:22:46;3.90;;;3.00;;
3299;SDS011;1662;49.310;8.134;2022-10-16T10:25:16;2.03;;;2.00;;
3299;SDS011;1662;49.310;8.134;2022-10-16T10:28:33;3.13;;;2.93;;
3299;SDS011;1662;49.310;8.134;2022-10-16T10:36:32;2.43;;;2.33;;
3299;SDS011;1662;49.310;8.134;2022-10-16T10:46:50;2.50;;;2.40;;
3299;SDS011;1662;49.310;8.134;2022-10-16T10:54:51;2.87;;;2.77;;
3299;SDS011;1662;49.310;8.134;2022-10-16T11:00:21;2.50;;;2.30;;
3299;SDS011;1662;49.310;8.134;2022-10-16T11:08:20;3.00;;;2.90;;
3299;SDS011;1662;49.310;8.134;2022-10-16T11:11:25;2.63;;;2.40;;
3299;SDS011;1662;49.310;8.134;2022-10-16T11:19:44;3.07;;;2.87;;
3299;SDS011;1662;49.310;8.134;2022-10-16T11:22:16;6.00;;;2.73;;
3299;SDS011;1662;49.310;8.134;2022-10-16T11:27:34;3.03;;;2.60;;
3299;SDS011;1662;49.310;8.134;2022-10-16T11:30:12;2.47;;;2.37;;
3299;SDS011;1662;49.310;8.134;2022-10-16T11:39:04;2.97;;;2.80;;
3299;SDS011;1662;49.310;8.134;2022-10-16T11:41:52;3.27;;;3.00;;
3299;SDS011;1662;49.310;8.134;2022-10-16T11:49:59;5.93;;;3.03;;
3299;SDS011;1662;49.310;8.134;2022-10-16T11:52:40;3.00;;;2.80;;
3299;SDS011;1662;49.310;8.134;2022-10-16T11:55:38;2.57;;;2.37;;
3299;SDS011;1662;49.310;8.134;2022-10-16T12:00:40;2.70;;;2.60;;
3299;SDS011;1662;49.310;8.134;2022-10-16T12:08:48;6.60;;;2.90;;
3299;SDS011;1662;49.310;8.134;2022-10-16T12:16:56;3.27;;;3.07;;
3299;SDS011;1662;49.310;8.134;2022-10-16T12:19:30;4.83;;;2.57;;
3299;SDS011;1662;49.310;8.134;2022-10-16T12:21:57;3.80;;;3.50;;
3299;SDS011;1662;49.310;8.134;2022-10-16T12:24:30;2.60;;;2.50;;
3299;SDS011;1662;49.310;8.134;2022-10-16T12:27:23;2.97;;;2.87;;
3299;SDS011;1662;49.310;8.134;2022-10-16T12:30:03;4.13;;;3.73;;
3299;SDS011;1662;49.310;8.134;2022-10-16T12:32:34;3.30;;;3.10;;
3299;SDS011;1662;49.310;8.134;2022-10-16T12:35:02;4.03;;;3.53;;
3299;SDS011;1662;49.310;8.134;2022-10-16T12:37:31;3.43;;;3.13;;
3299;SDS011;1662;49.310;8.134;2022-10-16T12:42:45;4.43;;;2.90;;
3299;SDS011;1662;49.310;8.134;2022-10-16T12:47:56;4.63;;;3.43;;
3299;SDS011;1662;49.310;8.134;2022-10-16T12:50:27;3.80;;;2.90;;
3299;SDS011;1662;49.310;8.134;2022-10-16T12:52:53;3.73;;;3.20;;
3299;SDS011;1662;49.310;8.134;2022-10-16T12:55:20;5.10;;;3.27;;
3299;SDS011;1662;49.310;8.134;2022-10-16T12:58:00;4.80;;;2.80;;
3299;SDS011;1662;49.310;8.134;2022-10-16T13:00:50;3.20;;;3.00;;
3299;SDS011;1662;49.310;8.134;2022-10-16T13:17:08;3.30;;;3.13;;
3299;SDS011;1662;49.310;8.134;2022-10-16T13:24:56;3.60;;;3.30;;
3299;SDS011;1662;49.310;8.134;2022-10-16T13:32:44;2.87;;;2.67;;
3299;SDS011;1662;49.310;8.134;2022-10-16T13:35:20;3.47;;;3.27;;
3299;SDS011;1662;49.310;8.134;2022-10-16T13:37:49;3.50;;;3.20;;
3299;SDS011;1662;49.310;8.134;2022-10-16T13:40:20;3.27;;;3.00;;
3299;SDS011;1662;49.310;8.134;2022-10-16T13:42:47;3.27;;;3.13;;
3299;SDS011;1662;49.310;8.134;2022-10-16T13:45:21;4.23;;;3.83;;
3299;SDS011;1662;49.310;8.134;2022-10-16T13:48:00;6.40;;;4.30;;
3299;SDS011;1662;49.310;8.134;2022-10-16T13:50:29;5.80;;;5.30;;
3299;SDS011;1662;49.310;8.134;2022-10-16T13:53:09;4.33;;;4.03;;
3299;SDS011;1662;49.310;8.134;2022-10-16T13:55:38;4.47;;;3.07;;
3299;SDS011;1662;49.310;8.134;2022-10-16T13:58:07;7.10;;;4.57;;
3299;SDS011;1662;49.310;8.134;2022-10-16T14:00:36;4.00;;;3.70;;
3299;SDS011;1662;49.310;8.134;2022-10-16T14:03:03;4.93;;;3.90;;
3299;SDS011;1662;49.310;8.134;2022-10-16T14:05:31;3.27;;;3.10;;
3299;SDS011;1662;49.310;8.134;2022-10-16T14:08:00;4.30;;;3.90;;
3299;SDS011;1662;49.310;8.134;2022-10-16T14:10:27;4.67;;;4.10;;
3299;SDS011;1662;49.310;8.134;2022-10-16T14:12:59;3.90;;;3.70;;
3299;SDS011;1662;49.310;8.134;2022-10-16T14:15:30;6.97;;;3.80;;
3299;SDS011;1662;49.310;8.134;2022-10-16T14:17:58;5.73;;;3.50;;
3299;SDS011;1662;49.310;8.134;2022-10-16T14:20:28;4.20;;;3.90;;
3299;SDS011;1662;49.310;8.134;2022-10-16T14:23:30;4.60;;;4.20;;
3299;SDS011;1662;49.310;8.134;2022-10-16T14:25:53;5.50;;;5.10;;
3299;SDS011;1662;49.310;8.134;2022-10-16T14:28:21;4.23;;;4.03;;
3299;SDS011;1662;49.310;8.134;2022-10-16T14:31:33;3.87;;;3.60;;
3299;SDS011;1662;49.310;8.134;2022-10-16T14:33:46;4.80;;;4.33;;
3299;SDS011;1662;49.310;8.134;2022-10-16T14:36:15;4.50;;;4.07;;
3299;SDS011;1662;49.310;8.134;2022-10-16T14:38:48;4.27;;;3.87;;
3299;SDS011;1662;49.310;8.134;2022-10-16T14:41:31;9.03;;;3.90;;
3299;SDS011;1662;49.310;8.134;2022-10-16T14:44:05;5.00;;;4.33;;
3299;SDS011;1662;49.310;8.134;2022-10-16T14:46:32;5.33;;;3.77;;
3299;SDS011;1662;49.310;8.134;2022-10-16T14:49:03;6.00;;;3.97;;
3299;SDS011;1662;49.310;8.134;2022-10-16T14:51:39;4.43;;;4.13;;
3299;SDS011;1662;49.310;8.134;2022-10-16T14:54:13;6.63;;;3.63;;
3299;SDS011;1662;49.310;8.134;2022-10-16T14:59:17;4.80;;;4.40;;
3299;SDS011;1662;49.310;8.134;2022-10-16T15:01:47;5.07;;;4.53;;
3299;SDS011;1662;49.310;8.134;2022-10-16T15:04:13;4.33;;;4.13;;
3299;SDS011;1662;49.310;8.134;2022-10-16T15:06:40;3.90;;;3.70;;
3299;SDS011;1662;49.310;8.134;2022-10-16T15:09:08;4.77;;;4.30;;
3299;SDS011;1662;49.310;8.134;2022-10-16T15:11:33;4.87;;;4.50;;
3299;SDS011;1662;49.310;8.134;2022-10-16T15:13:59;4.03;;;3.73;;
3299;SDS011;1662;49.310;8.134;2022-10-16T15:16:25;4.17;;;3.83;;
3299;SDS011;1662;49.310;8.134;2022-10-16T15:18:51;4.83;;;4.43;;
3299;SDS011;1662;49.310;8.134;2022-10-16T15:21:27;4.60;;;4.20;;
3299;SDS011;1662;49.310;8.134;2022-10-16T15:23:55;4.53;;;4.20;;
3299;SDS011;1662;49.310;8.134;2022-10-16T15:26:22;4.80;;;4.50;;
3299;SDS011;1662;49.310;8.134;2022-10-16T15:28:49;4.73;;;4.03;;
3299;SDS011;1662;49.310;8.134;2022-10-16T15:31:15;8.13;;;4.30;;
3299;SDS011;1662;49.310;8.134;2022-10-16T15:33:40;5.20;;;4.90;;
3299;SDS011;1662;49.310;8.134;2022-10-16T15:36:06;6.13;;;5.33;;
3299;SDS011;1662;49.310;8.134;2022-10-16T15:38:32;5.73;;;5.33;;
3299;SDS011;1662;49.310;8.134;2022-10-16T15:40:57;5.97;;;5.47;;
3299;SDS011;1662;49.310;8.134;2022-10-16T15:43:23;6.00;;;5.30;;
3299;SDS011;1662;49.310;8.134;2022-10-16T15:45:58;7.10;;;5.47;;
3299;SDS011;1662;49.310;8.134;2022-10-16T15:48:26;5.00;;;4.50;;
3299;SDS011;1662;49.310;8.134;2022-10-16T15:50:52;9.67;;;4.57;;
3299;SDS011;1662;49.310;8.134;2022-10-16T15:53:18;5.43;;;4.37;;
3299;SDS011;1662;49.310;8.134;2022-10-16T15:55:43;4.63;;;4.33;;
3299;SDS011;1662;49.310;8.134;2022-10-16T15:58:09;4.50;;;4.10;;
3299;SDS011;1662;49.310;8.134;2022-10-16T16:00:36;5.30;;;4.40;;
3299;SDS011;1662;49.310;8.134;2022-10-16T16:03:02;3.97;;;3.77;;
3299;SDS011;1662;49.310;8.134;2022-10-16T16:05:28;5.57;;;4.00;;
3299;SDS011;1662;49.310;8.134;2022-10-16T16:07:54;4.40;;;4.00;;
3299;SDS011;1662;49.310;8.134;2022-10-16T16:10:22;5.83;;;3.93;;
3299;SDS011;1662;49.310;8.134;2022-10-16T16:12:48;3.87;;;3.67;;
3299;SDS011;1662;49.310;8.134;2022-10-16T16:15:17;4.00;;;3.70;;
3299;SDS011;1662;49.310;8.134;2022-10-16T16:17:46;4.00;;;3.80;;
3299;SDS011;1662;49.310;8.134;2022-10-16T16:20:12;4.87;;;4.40;;
3299;SDS011;1662;49.310;8.134;2022-10-16T16:22:38;5.63;;;3.27;;
3299;SDS011;1662;49.310;8.134;2022-10-16T16:25:06;6.40;;;3.60;;
3299;SDS011;1662;49.310;8.134;2022-10-16T16:27:32;8.23;;;3.80;;
3299;SDS011;1662;49.310;8.134;2022-10-16T16:29:59;10.50;;;3.70;;
3299;SDS011;1662;49.310;8.134;2022-10-16T16:32:26;7.40;;;3.57;;
3299;SDS011;1662;49.310;8.134;2022-10-16T16:34:51;4.40;;;4.00;;
3299;SDS011;1662;49.310;8.134;2022-10-16T16:37:17;4.00;;;3.67;;
3299;SDS011;1662;49.310;8.134;2022-10-16T16:39:42;4.27;;;4.07;;
3299;SDS011;1662;49.310;8.134;2022-10-16T16:42:08;4.03;;;3.73;;
3299;SDS011;1662;49.310;8.134;2022-10-16T16:44:35;4.20;;;3.90;;
3299;SDS011;1662;49.310;8.134;2022-10-16T16:47:01;4.70;;;4.30;;
3299;SDS011;1662;49.310;8.134;2022-10-16T16:49:27;5.43;;;4.13;;
3299;SDS011;1662;49.310;8.134;2022-10-16T16:51:53;4.77;;;4.27;;
3299;SDS011;1662;49.310;8.134;2022-10-16T16:54:19;5.30;;;4.60;;
3299;SDS011;1662;49.310;8.134;2022-10-16T16:56:45;6.17;;;4.10;;
3299;SDS011;1662;49.310;8.134;2022-10-16T16:59:15;14.80;;;4.60;;
3299;SDS011;1662;49.310;8.134;2022-10-16T17:01:44;5.50;;;5.07;;
3299;SDS011;1662;49.310;8.134;2022-10-16T17:04:10;4.97;;;4.40;;
3299;SDS011;1662;49.310;8.134;2022-10-16T17:06:36;6.30;;;4.97;;
3299;SDS011;1662;49.310;8.134;2022-10-16T17:09:03;6.60;;;4.40;;
3299;SDS011;1662;49.310;8.134;2022-10-16T17:11:29;6.00;;;4.40;;
3299;SDS011;1662;49.310;8.134;2022-10-16T17:13:56;7.80;;;4.40;;
3299;SDS011;1662;49.310;8.134;2022-10-16T17:16:27;7.23;;;4.87;;
3299;SDS011;1662;49.310;8.134;2022-10-16T17:18:55;4.83;;;4.33;;
3299;SDS011;1662;49.310;8.134;2022-10-16T17:21:26;8.20;;;4.20;;
3299;SDS011;1662;49.310;8.134;2022-10-16T17:23:54;6.70;;;5.20;;
3299;SDS011;1662;49.310;8.134;2022-10-16T17:26:20;5.53;;;4.43;;
3299;SDS011;1662;49.310;8.134;2022-10-16T17:28:52;4.53;;;3.97;;
3299;SDS011;1662;49.310;8.134;2022-10-16T17:31:20;6.10;;;4.60;;
3299;SDS011;1662;49.310;8.134;2022-10-16T17:33:51;7.03;;;4.70;;
3299;SDS011;1662;49.310;8.134;2022-10-16T17:36:17;4.53;;;4.20;;
3299;SDS011;1662;49.310;8.134;2022-10-16T17:38:43;5.80;;;4.53;;
3299;SDS011;1662;49.310;8.134;2022-10-16T17:41:16;5.43;;;4.77;;
3299;SDS011;1662;49.310;8.134;2022-10-16T17:43:42;6.57;;;5.87;;
3299;SDS011;1662;49.310;8.134;2022-10-16T17:46:09;5.00;;;4.63;;
3299;SDS011;1662;49.310;8.134;2022-10-16T17:48:38;5.27;;;4.87;;